<?xml version='1.0' encoding='UTF-8'?>
<gpx xmlns="http://www.topografix.com/GPX/1/1" creator="www.balnam.be" version="1.1" xmlns:xsi="http://www.w3.org/2001/XMLSchema-instance" xsi:schemaLocation="http://www.topografix.com/GPX/1/1 http://www.topografix.com/GPX/1/1/gpx.xsd">
<trk>
<name>lhagh11</name>
<cmt>v</cmt>
<desc>Grand-Hallet Chemin n°11 Rue Hombroeckx / Rue Trixhe des Bois / Rue du Pont Molhain / Rue des Tuilleries</desc>
<link href="https://chemins.be/grandhallet/chemin/11"/><trkseg>
<trkpt lat="50.696528" lon="5.039381"><time>2026-05-02T20:11:58Z</time></trkpt>
<trkpt lat="50.696615" lon="5.040005"><time>2026-05-02T20:21:58Z</time></trkpt>
<trkpt lat="50.696766" lon="5.040276"><time>2026-05-02T20:31:58Z</time></trkpt>
<trkpt lat="50.696449" lon="5.040682"><time>2026-05-02T20:41:58Z</time></trkpt>
<trkpt lat="50.695769" lon="5.043121"><time>2026-05-02T20:51:58Z</time></trkpt>
<trkpt lat="50.695475" lon="5.044199"><time>2026-05-02T21:01:58Z</time></trkpt>
</trkseg></trk>
<trk>
<name>lhagh11</name>
<cmt>r</cmt>
<desc>Grand-Hallet Chemin n°11 Rue Hombroeckx / Rue Trixhe des Bois / Rue du Pont Molhain / Rue des Tuilleries</desc>
<link href="https://chemins.be/grandhallet/chemin/11"/><trkseg>
<trkpt lat="50.695475" lon="5.044199"><time>2026-05-02T21:01:58Z</time></trkpt>
<trkpt lat="50.695419" lon="5.044645"><time>2026-05-02T21:11:58Z</time></trkpt>
<trkpt lat="50.694949" lon="5.045133"><time>2026-05-02T21:21:58Z</time></trkpt>
<trkpt lat="50.694289" lon="5.045803"><time>2026-05-02T21:31:58Z</time></trkpt>
</trkseg></trk>
<trk>
<name>lhagh11</name>
<cmt>v</cmt>
<desc>Grand-Hallet Chemin n°11 Rue Hombroeckx / Rue Trixhe des Bois / Rue du Pont Molhain / Rue des Tuilleries</desc>
<link href="https://chemins.be/grandhallet/chemin/11"/><trkseg>
<trkpt lat="50.694289" lon="5.045803"><time>2026-05-02T21:31:58Z</time></trkpt>
<trkpt lat="50.693793" lon="5.046452"><time>2026-05-02T21:41:58Z</time></trkpt>
</trkseg></trk>
<trk>
<name>lhagh11</name>
<cmt>r</cmt>
<desc>Grand-Hallet Chemin n°11 Rue Hombroeckx / Rue Trixhe des Bois / Rue du Pont Molhain / Rue des Tuilleries</desc>
<link href="https://chemins.be/grandhallet/chemin/11"/><trkseg>
<trkpt lat="50.693793" lon="5.046452"><time>2026-05-02T21:41:58Z</time></trkpt>
<trkpt lat="50.691984" lon="5.046750"><time>2026-05-02T21:51:58Z</time></trkpt>
<trkpt lat="50.691703" lon="5.047343"><time>2026-05-02T22:01:58Z</time></trkpt>
<trkpt lat="50.692020" lon="5.051528"><time>2026-05-02T22:11:58Z</time></trkpt>
<trkpt lat="50.691523" lon="5.052869"><time>2026-05-02T22:21:58Z</time></trkpt>
<trkpt lat="50.691253" lon="5.054225"><time>2026-05-02T22:31:58Z</time></trkpt>
<trkpt lat="50.691069" lon="5.055254"><time>2026-05-02T22:41:58Z</time></trkpt>
<trkpt lat="50.690234" lon="5.056515"><time>2026-05-02T22:51:58Z</time></trkpt>
<trkpt lat="50.689757" lon="5.056565"><time>2026-05-02T23:01:58Z</time></trkpt>
<trkpt lat="50.687564" lon="5.056858"><time>2026-05-02T23:11:58Z</time></trkpt>
<trkpt lat="50.686723" lon="5.057677"><time>2026-05-02T23:21:58Z</time></trkpt>
</trkseg></trk>
<trk>
<name>lhagh11</name>
<cmt>v</cmt>
<desc>Grand-Hallet Chemin n°11 Rue Hombroeckx / Rue Trixhe des Bois / Rue du Pont Molhain / Rue des Tuilleries</desc>
<link href="https://chemins.be/grandhallet/chemin/11"/><trkseg>
<trkpt lat="50.686723" lon="5.057677"><time>2026-05-02T23:21:58Z</time></trkpt>
<trkpt lat="50.685735" lon="5.060263"><time>2026-05-02T23:31:58Z</time></trkpt>
<trkpt lat="50.685187" lon="5.061260"><time>2026-05-02T23:41:58Z</time></trkpt>
</trkseg></trk>
<trk>
<name>lhagh11</name>
<cmt>q</cmt>
<desc>Grand-Hallet Chemin n°11 Rue Hombroeckx / Rue Trixhe des Bois / Rue du Pont Molhain / Rue des Tuilleries</desc>
<link href="https://chemins.be/grandhallet/chemin/11"/><trkseg>
<trkpt lat="50.685187" lon="5.061260"><time>2026-05-02T23:41:58Z</time></trkpt>
<trkpt lat="50.684439" lon="5.063996"><time>2026-05-02T23:51:58Z</time></trkpt>
</trkseg></trk>
<trk>
<name>lhagh11</name>
<cmt>d</cmt>
<desc>Grand-Hallet Chemin n°11 Rue Hombroeckx / Rue Trixhe des Bois / Rue du Pont Molhain / Rue des Tuilleries</desc>
<link href="https://chemins.be/grandhallet/chemin/11"/><trkseg>
<trkpt lat="50.684439" lon="5.063996"><time>2026-05-02T23:51:58Z</time></trkpt>
<trkpt lat="50.684302" lon="5.064433"><time>2026-05-03T00:01:58Z</time></trkpt>
</trkseg>
</trk>
</gpx>